createdAt,value
2022-09-11T00:02:53.557Z,7.68
2022-09-11T00:07:56.921Z,8.38
2022-09-11T00:12:58.740Z,8.63
2022-09-11T00:18:00.469Z,9.25
2022-09-11T00:23:05.055Z,8.63
2022-09-11T00:28:07.433Z,9.43
2022-09-11T00:33:10.278Z,10.13
2022-09-11T00:38:16.646Z,10.43
2022-09-11T00:43:19.052Z,11.68
2022-09-11T00:48:24.722Z,10.90
2022-09-11T00:53:30.336Z,10.77
2022-09-11T00:58:35.997Z,12.23
2022-09-11T01:03:37.870Z,10.27
2022-09-11T01:08:40.162Z,10.50
2022-09-11T01:13:52.557Z,9.93
2022-09-11T01:19:20.466Z,10.60
2022-09-11T01:24:44.264Z,10.02
2022-09-11T01:29:59.198Z,9.85
2022-09-11T01:35:12.861Z,10.13
2022-09-11T01:40:30.257Z,9.13
2022-09-11T01:45:37.228Z,9.98
2022-09-11T01:50:42.855Z,8.88
2022-09-11T01:55:57.733Z,10.32
2022-09-11T02:01:10.127Z,9.30
2022-09-11T02:06:20.365Z,9.75
2022-09-11T02:11:24.117Z,9.75
2022-09-11T02:17:03.380Z,9.93
2022-09-11T02:22:05.465Z,10.43
2022-09-11T02:27:16.896Z,9.73
2022-09-11T02:32:18.871Z,9.57
2022-09-11T02:37:46.797Z,10.02
2022-09-11T02:43:01.925Z,11.13
2022-09-11T02:48:28.709Z,11.93
2022-09-11T02:53:51.841Z,13.27
2022-09-11T02:58:56.439Z,14.48
2022-09-11T03:03:59.158Z,14.40
2022-09-11T03:09:00.920Z,15.90
2022-09-11T03:14:02.733Z,15.70
2022-09-11T03:19:05.768Z,15.98
2022-09-11T03:24:09.604Z,14.32
2022-09-11T03:29:12.584Z,14.73
2022-09-11T03:34:17.918Z,14.45
2022-09-11T03:39:20.521Z,15.88
2022-09-11T03:44:22.293Z,17.92
2022-09-11T03:49:24.203Z,16.50
2022-09-11T03:54:27.653Z,16.65
2022-09-11T03:59:30.281Z,18.15
2022-09-11T04:04:32.889Z,17.17
2022-09-11T04:09:34.693Z,18.50
2022-09-11T04:14:36.792Z,17.73
2022-09-11T04:19:40.649Z,17.20
2022-09-11T04:24:43.537Z,16.98
2022-09-11T04:29:47.991Z,17.50
2022-09-11T04:34:50.894Z,17.63
2022-09-11T04:39:53.203Z,18.92
2022-09-11T04:44:55.023Z,20.45
2022-09-11T04:49:57.388Z,20.17
2022-09-11T04:54:59.352Z,20.63
2022-09-11T05:00:01.322Z,21.25
2022-09-11T05:05:03.632Z,19.70
2022-09-11T05:10:06.182Z,18.75
2022-09-11T05:15:10.256Z,18.55
2022-09-11T05:20:12.282Z,17.83
2022-09-11T05:25:14.268Z,18.90
2022-09-11T05:30:16.271Z,19.70
2022-09-11T05:35:18.977Z,20.63
2022-09-11T05:40:21.012Z,20.90
2022-09-11T05:45:24.895Z,22.42
2022-09-11T05:50:27.425Z,23.05
2022-09-11T05:55:29.428Z,25.05
2022-09-11T06:00:31.308Z,23.13
2022-09-11T06:05:33.647Z,25.42
2022-09-11T06:10:46.391Z,22.38
2022-09-11T06:15:49.214Z,23.90
2022-09-11T06:20:58.598Z,26.35
2022-09-11T06:26:09.902Z,24.80
2022-09-11T06:31:17.140Z,22.92
2022-09-11T06:36:32.589Z,21.70
2022-09-11T06:41:38.515Z,22.77
2022-09-11T06:46:47.786Z,20.73
2022-09-11T06:51:49.997Z,20.98
2022-09-11T06:56:51.916Z,21.13
2022-09-11T07:01:54.742Z,21.60
2022-09-11T07:06:57.197Z,21.58
2022-09-11T07:11:59.652Z,21.60
2022-09-11T07:17:03.167Z,20.30
2022-09-11T07:22:05.041Z,19.58
2022-09-11T07:27:08.589Z,19.60
2022-09-11T07:32:11.591Z,18.27
2022-09-11T07:37:14.884Z,18.08
2022-09-11T07:42:16.777Z,17.92
2022-09-11T07:47:19.196Z,19.63
2022-09-11T07:52:24.474Z,18.85
2022-09-11T07:57:30.919Z,17.23
2022-09-11T08:02:33.984Z,18.13
2022-09-11T08:07:36.636Z,16.35
2022-09-11T08:12:39.898Z,16.52
2022-09-11T08:17:41.688Z,15.73
2022-09-11T08:22:44.655Z,15.15
2022-09-11T08:27:46.554Z,15.38
2022-09-11T08:32:51.863Z,16.13
2022-09-11T08:37:55.557Z,15.40
2022-09-11T08:43:01.935Z,14.60
2022-09-11T08:48:07.046Z,14.93
2022-09-11T08:53:19.407Z,14.90
2022-09-11T08:58:21.655Z,16.60
2022-09-11T09:03:53.712Z,14.00
2022-09-11T09:09:19.612Z,13.40
2022-09-11T09:15:10.245Z,13.80
2022-09-11T09:20:29.833Z,14.43
2022-09-11T09:25:38.206Z,12.82
2022-09-11T09:30:51.589Z,11.77
2022-09-11T09:35:57.738Z,9.75
2022-09-11T09:41:26.094Z,10.38
2022-09-11T09:46:42.094Z,11.88
2022-09-11T09:51:43.995Z,12.82
2022-09-11T09:56:56.900Z,12.70
2022-09-11T10:01:58.759Z,12.82
2022-09-11T10:07:19.965Z,11.85
2022-09-11T10:12:25.459Z,12.55
2022-09-11T10:17:30.297Z,11.57
2022-09-11T10:22:32.391Z,11.85
2022-09-11T10:27:40.296Z,11.38
2022-09-11T10:32:42.719Z,10.18
2022-09-11T10:37:46.914Z,8.70
2022-09-11T10:42:51.164Z,9.57
2022-09-11T10:47:53.104Z,10.13
2022-09-11T10:53:20.127Z,10.35
2022-09-11T10:58:27.238Z,10.05
2022-09-11T11:03:29.614Z,10.30
2022-09-11T11:08:37.186Z,8.18
2022-09-11T11:13:52.409Z,8.60
2022-09-11T11:19:21.765Z,8.73
2022-09-11T11:24:35.384Z,9.70
2022-09-11T11:30:00.551Z,10.38
2022-09-11T11:35:09.457Z,9.45
2022-09-11T11:40:30.172Z,9.85
2022-09-11T11:45:51.147Z,8.35
2022-09-11T11:50:57.992Z,8.80
2022-09-11T11:56:14.773Z,7.75
2022-09-11T12:01:32.131Z,7.82
2022-09-11T12:06:33.912Z,6.68
2022-09-11T12:11:36.773Z,7.07
2022-09-11T12:16:39.006Z,6.50
2022-09-11T12:22:05.298Z,6.20
2022-09-11T12:27:34.214Z,7.22
2022-09-11T12:32:47.361Z,7.32
2022-09-11T12:38:01.778Z,7.15
2022-09-11T12:43:17.512Z,7.75
2022-09-11T12:48:23.805Z,9.27
2022-09-11T12:53:34.026Z,8.07
2022-09-11T12:58:44.898Z,6.43
2022-09-11T13:03:53.391Z,5.60
2022-09-11T13:08:59.864Z,5.97
2022-09-11T13:14:02.201Z,5.95
2022-09-11T13:19:10.192Z,5.97
2022-09-11T13:24:27.222Z,5.25
2022-09-11T13:29:33.161Z,6.75
2022-09-11T13:34:36.495Z,6.55
2022-09-11T13:39:43.873Z,7.72
2022-09-11T13:44:57.703Z,6.25
2022-09-11T13:50:06.494Z,5.90
2022-09-11T13:55:20.187Z,5.23
2022-09-11T14:00:40.810Z,5.53
2022-09-11T14:05:56.046Z,4.80
2022-09-11T14:11:02.267Z,4.53
2022-09-11T14:16:10.414Z,4.88
2022-09-11T14:21:22.828Z,4.28
2022-09-11T14:26:30.498Z,2.92
2022-09-11T14:31:39.726Z,2.60
2022-09-11T14:37:02.635Z,2.90
2022-09-11T14:42:07.578Z,2.50
2022-09-11T14:47:20.917Z,2.67
2022-09-11T14:52:27.673Z,3.33
2022-09-11T14:57:32.786Z,3.17
2022-09-11T15:02:34.663Z,4.38
2022-09-11T15:07:37.383Z,3.92
2022-09-11T15:12:39.590Z,4.03
2022-09-11T15:17:45.920Z,6.75
2022-09-11T15:22:48.936Z,4.78
2022-09-11T15:27:52.381Z,4.30
2022-09-11T15:32:55.123Z,4.25
2022-09-11T15:37:56.892Z,4.93
2022-09-11T15:42:58.646Z,5.30
2022-09-11T15:48:00.402Z,5.97
2022-09-11T15:53:02.205Z,5.78
2022-09-11T15:58:04.770Z,4.72
2022-09-11T16:03:07.774Z,3.75
2022-09-11T16:08:09.461Z,4.00
2022-09-11T16:13:11.753Z,5.07
2022-09-11T16:18:13.473Z,4.65
2022-09-11T16:23:15.372Z,4.35
2022-09-11T16:28:17.384Z,5.03
2022-09-11T16:33:20.888Z,4.70
2022-09-11T16:38:23.865Z,4.05
2022-09-11T16:43:25.666Z,5.53
2022-09-11T16:48:27.636Z,6.25
2022-09-11T16:53:34.241Z,5.40
2022-09-11T16:58:37.110Z,5.07
2022-09-11T17:03:41.489Z,3.25
2022-09-11T17:08:44.550Z,4.28
2022-09-11T17:13:47.123Z,6.88
2022-09-11T17:18:51.130Z,5.30
2022-09-11T17:23:57.177Z,5.45
2022-09-11T17:29:03.393Z,5.88
2022-09-11T17:34:05.165Z,5.93
2022-09-11T17:39:07.327Z,5.55
2022-09-11T17:44:09.049Z,5.80
2022-09-11T17:49:10.829Z,6.80
2022-09-11T17:54:12.604Z,7.00
2022-09-11T17:59:14.339Z,6.80
2022-09-11T18:04:18.282Z,8.55
2022-09-11T18:09:20.347Z,7.55
2022-09-11T18:14:22.147Z,7.32
2022-09-11T18:19:24.487Z,8.05
2022-09-11T18:24:29.872Z,9.00
2022-09-11T18:29:31.802Z,9.20
2022-09-11T18:34:33.566Z,9.73
2022-09-11T18:39:35.329Z,9.10
2022-09-11T18:44:37.283Z,11.07
2022-09-11T18:49:39.636Z,10.35
2022-09-11T18:54:41.592Z,10.25
2022-09-11T18:59:43.487Z,11.10
2022-09-11T19:04:46.064Z,10.45
2022-09-11T19:09:49.314Z,10.75
2022-09-11T19:14:51.173Z,10.20
2022-09-11T19:19:52.995Z,11.52
2022-09-11T19:24:54.773Z,11.27
2022-09-11T19:29:56.826Z,11.27
2022-09-11T19:35:00.270Z,11.85
2022-09-11T19:40:02.427Z,12.13
2022-09-11T19:45:05.822Z,12.00
2022-09-11T19:50:08.521Z,12.23
2022-09-11T19:55:10.278Z,12.43
2022-09-11T20:00:12.388Z,12.65
2022-09-11T20:05:14.589Z,13.90
2022-09-11T20:10:16.314Z,15.27
2022-09-11T20:15:18.716Z,13.05
2022-09-11T20:20:21.010Z,13.05
2022-09-11T20:25:23.074Z,13.82
2022-09-11T20:30:25.497Z,11.32
2022-09-11T20:35:27.380Z,22.67
2022-09-11T20:40:29.069Z,12.80
2022-09-11T20:45:30.770Z,12.63
2022-09-11T20:50:33.012Z,12.23
2022-09-11T20:55:34.719Z,14.23
2022-09-11T21:00:38.275Z,13.27
2022-09-11T21:05:40.084Z,13.23
2022-09-11T21:10:41.814Z,12.68
2022-09-11T21:15:48.168Z,13.65
2022-09-11T21:20:56.711Z,13.00
2022-09-11T21:25:58.506Z,11.50
2022-09-11T21:31:00.247Z,10.48
2022-09-11T21:36:02.412Z,20.42
2022-09-11T21:41:06.264Z,10.80
2022-09-11T21:46:09.045Z,10.85
2022-09-11T21:51:12.089Z,8.95
2022-09-11T21:56:31.946Z,6.75
2022-09-11T22:01:35.159Z,6.43
2022-09-11T22:06:38.272Z,5.60
2022-09-11T22:11:39.966Z,5.20
2022-09-11T22:16:41.713Z,4.75
2022-09-11T22:21:44.106Z,4.60
2022-09-11T22:26:46.241Z,4.75
2022-09-11T22:31:48.002Z,3.83
2022-09-11T22:36:49.762Z,3.45
2022-09-11T22:41:51.716Z,4.03
2022-09-11T22:46:53.828Z,3.40
2022-09-11T22:51:55.546Z,3.08
2022-09-11T22:56:57.250Z,2.95
2022-09-11T23:01:59.707Z,3.30
2022-09-11T23:07:16.888Z,3.05
2022-09-11T23:12:18.678Z,2.50
2022-09-11T23:17:20.395Z,3.10
2022-09-11T23:22:22.887Z,3.15
2022-09-11T23:27:24.690Z,3.20
2022-09-11T23:32:26.394Z,3.25
2022-09-11T23:37:28.091Z,3.00
2022-09-11T23:42:29.856Z,3.17
2022-09-11T23:47:31.563Z,3.67
2022-09-11T23:52:36.411Z,3.20
2022-09-11T23:57:38.225Z,3.33
